sensor_id;sensor_type;location;lat;lon;timestamp;pressure;altitude;pressure_sealevel;temperature;humidity
29815;BME280;16708;50.426;7.664;2024-02-14T00:00:36;989.00;;;7.00;100.00
29815;BME280;16708;50.426;7.664;2024-02-14T00:05:28;989.00;;;7.03;100.00
29815;BME280;16708;50.426;7.664;2024-02-14T00:10:22;989.03;;;7.04;100.00
29815;BME280;16708;50.426;7.664;2024-02-14T00:15:21;988.95;;;7.00;100.00
29815;BME280;16708;50.426;7.664;2024-02-14T00:20:10;989.01;;;7.06;100.00
29815;BME280;16708;50.426;7.664;2024-02-14T00:25:02;988.92;;;7.03;100.00
29815;BME280;16708;50.426;7.664;2024-02-14T00:29:56;988.94;;;7.11;100.00
29815;BME280;16708;50.426;7.664;2024-02-14T00:34:50;988.92;;;7.08;100.00
29815;BME280;16708;50.426;7.664;2024-02-14T00:39:44;988.85;;;7.21;100.00
29815;BME280;16708;50.426;7.664;2024-02-14T00:44:39;988.96;;;7.35;100.00
29815;BME280;16708;50.426;7.664;2024-02-14T00:49:32;989.08;;;7.35;100.00
29815;BME280;16708;50.426;7.664;2024-02-14T00:54:26;988.97;;;7.52;100.00
29815;BME280;16708;50.426;7.664;2024-02-14T00:59:20;988.98;;;7.48;100.00
29815;BME280;16708;50.426;7.664;2024-02-14T01:04:15;988.89;;;7.37;100.00
29815;BME280;16708;50.426;7.664;2024-02-14T01:09:08;988.95;;;7.42;100.00
29815;BME280;16708;50.426;7.664;2024-02-14T01:14:02;988.95;;;7.43;100.00
29815;BME280;16708;50.426;7.664;2024-02-14T01:18:55;988.80;;;7.35;100.00
29815;BME280;16708;50.426;7.664;2024-02-14T01:23:49;988.83;;;7.34;100.00
29815;BME280;16708;50.426;7.664;2024-02-14T01:28:43;988.83;;;7.38;100.00
29815;BME280;16708;50.426;7.664;2024-02-14T01:33:37;988.69;;;7.38;100.00
29815;BME280;16708;50.426;7.664;2024-02-14T01:38:31;988.63;;;7.36;100.00
29815;BME280;16708;50.426;7.664;2024-02-14T01:43:26;988.52;;;7.39;100.00
29815;BME280;16708;50.426;7.664;2024-02-14T01:48:19;988.51;;;7.35;100.00
29815;BME280;16708;50.426;7.664;2024-02-14T01:53:13;988.43;;;7.36;100.00
29815;BME280;16708;50.426;7.664;2024-02-14T01:58:07;988.41;;;7.42;100.00
29815;BME280;16708;50.426;7.664;2024-02-14T02:03:01;988.43;;;7.36;100.00
29815;BME280;16708;50.426;7.664;2024-02-14T02:07:55;988.35;;;7.39;100.00
29815;BME280;16708;50.426;7.664;2024-02-14T02:12:49;988.47;;;7.39;100.00
29815;BME280;16708;50.426;7.664;2024-02-14T02:17:42;988.48;;;7.44;100.00
29815;BME280;16708;50.426;7.664;2024-02-14T02:22:35;988.54;;;7.43;100.00
29815;BME280;16708;50.426;7.664;2024-02-14T02:27:29;988.58;;;7.46;100.00
29815;BME280;16708;50.426;7.664;2024-02-14T02:32:24;988.61;;;7.44;100.00
29815;BME280;16708;50.426;7.664;2024-02-14T02:37:22;988.62;;;7.42;100.00
29815;BME280;16708;50.426;7.664;2024-02-14T02:42:14;988.60;;;7.42;100.00
29815;BME280;16708;50.426;7.664;2024-02-14T02:47:07;988.68;;;7.45;100.00
29815;BME280;16708;50.426;7.664;2024-02-14T02:52:01;988.62;;;7.45;100.00
29815;BME280;16708;50.426;7.664;2024-02-14T02:56:56;988.68;;;7.39;100.00
29815;BME280;16708;50.426;7.664;2024-02-14T03:01:49;988.75;;;7.46;100.00
29815;BME280;16708;50.426;7.664;2024-02-14T03:06:43;988.59;;;7.45;100.00
29815;BME280;16708;50.426;7.664;2024-02-14T03:11:36;988.64;;;7.43;100.00
29815;BME280;16708;50.426;7.664;2024-02-14T03:16:30;988.62;;;7.46;100.00
29815;BME280;16708;50.426;7.664;2024-02-14T03:21:24;988.61;;;7.43;100.00
29815;BME280;16708;50.426;7.664;2024-02-14T03:26:17;988.69;;;7.39;100.00
29815;BME280;16708;50.426;7.664;2024-02-14T03:31:10;988.64;;;7.45;100.00
29815;BME280;16708;50.426;7.664;2024-02-14T03:36:04;988.62;;;7.44;100.00
29815;BME280;16708;50.426;7.664;2024-02-14T03:41:00;988.59;;;7.43;100.00
29815;BME280;16708;50.426;7.664;2024-02-14T03:45:51;988.67;;;7.43;100.00
29815;BME280;16708;50.426;7.664;2024-02-14T03:50:47;988.65;;;7.42;100.00
29815;BME280;16708;50.426;7.664;2024-02-14T03:55:40;988.66;;;7.43;100.00
29815;BME280;16708;50.426;7.664;2024-02-14T04:00:34;988.73;;;7.41;100.00
29815;BME280;16708;50.426;7.664;2024-02-14T04:05:28;988.76;;;7.39;100.00
29815;BME280;16708;50.426;7.664;2024-02-14T04:10:22;988.76;;;7.41;100.00
29815;BME280;16708;50.426;7.664;2024-02-14T04:15:15;988.80;;;7.40;100.00
29815;BME280;16708;50.426;7.664;2024-02-14T04:20:08;988.81;;;7.42;100.00
29815;BME280;16708;50.426;7.664;2024-02-14T04:25:02;988.89;;;7.44;100.00
29815;BME280;16708;50.426;7.664;2024-02-14T04:29:56;988.76;;;7.41;100.00
29815;BME280;16708;50.426;7.664;2024-02-14T04:34:50;988.84;;;7.44;100.00
29815;BME280;16708;50.426;7.664;2024-02-14T04:39:44;988.91;;;7.42;100.00
29815;BME280;16708;50.426;7.664;2024-02-14T04:44:36;988.96;;;7.39;100.00
29815;BME280;16708;50.426;7.664;2024-02-14T04:49:30;988.81;;;7.36;100.00
29815;BME280;16708;50.426;7.664;2024-02-14T04:54:23;988.74;;;7.32;100.00
29815;BME280;16708;50.426;7.664;2024-02-14T04:59:17;988.74;;;7.35;100.00
29815;BME280;16708;50.426;7.664;2024-02-14T05:04:11;988.85;;;7.32;100.00
29815;BME280;16708;50.426;7.664;2024-02-14T05:09:04;988.92;;;7.32;100.00
29815;BME280;16708;50.426;7.664;2024-02-14T05:13:58;988.87;;;7.30;100.00
29815;BME280;16708;50.426;7.664;2024-02-14T05:18:52;988.99;;;7.39;100.00
29815;BME280;16708;50.426;7.664;2024-02-14T05:23:46;989.06;;;7.40;100.00
29815;BME280;16708;50.426;7.664;2024-02-14T05:28:42;989.01;;;7.35;100.00
29815;BME280;16708;50.426;7.664;2024-02-14T05:33:35;989.01;;;7.32;100.00
29815;BME280;16708;50.426;7.664;2024-02-14T05:38:29;989.01;;;7.35;100.00
29815;BME280;16708;50.426;7.664;2024-02-14T05:43:23;989.09;;;7.36;100.00
29815;BME280;16708;50.426;7.664;2024-02-14T05:48:17;989.18;;;7.33;100.00
29815;BME280;16708;50.426;7.664;2024-02-14T05:53:11;989.12;;;7.31;100.00
29815;BME280;16708;50.426;7.664;2024-02-14T05:58:05;989.13;;;7.30;100.00
29815;BME280;16708;50.426;7.664;2024-02-14T06:02:59;988.99;;;7.25;100.00
29815;BME280;16708;50.426;7.664;2024-02-14T06:07:54;989.17;;;7.27;100.00
29815;BME280;16708;50.426;7.664;2024-02-14T06:12:49;989.11;;;7.23;100.00
29815;BME280;16708;50.426;7.664;2024-02-14T06:17:42;989.16;;;7.26;100.00
29815;BME280;16708;50.426;7.664;2024-02-14T06:22:35;989.28;;;7.24;100.00
29815;BME280;16708;50.426;7.664;2024-02-14T06:27:29;989.33;;;7.25;100.00
29815;BME280;16708;50.426;7.664;2024-02-14T06:32:26;989.39;;;7.27;100.00
29815;BME280;16708;50.426;7.664;2024-02-14T06:37:19;989.45;;;7.25;100.00
29815;BME280;16708;50.426;7.664;2024-02-14T06:42:14;989.41;;;7.27;100.00
29815;BME280;16708;50.426;7.664;2024-02-14T06:47:07;989.39;;;7.27;100.00
29815;BME280;16708;50.426;7.664;2024-02-14T06:52:01;989.44;;;7.27;100.00
29815;BME280;16708;50.426;7.664;2024-02-14T06:56:56;989.52;;;7.32;100.00
29815;BME280;16708;50.426;7.664;2024-02-14T07:01:44;989.48;;;7.33;100.00
29815;BME280;16708;50.426;7.664;2024-02-14T07:06:38;989.54;;;7.39;100.00
29815;BME280;16708;50.426;7.664;2024-02-14T07:11:31;989.56;;;7.41;100.00
29815;BME280;16708;50.426;7.664;2024-02-14T07:16:25;989.71;;;7.43;100.00
29815;BME280;16708;50.426;7.664;2024-02-14T07:21:19;989.78;;;7.43;100.00
29815;BME280;16708;50.426;7.664;2024-02-14T07:26:14;989.75;;;7.44;100.00
29815;BME280;16708;50.426;7.664;2024-02-14T07:31:03;989.83;;;7.47;100.00
29815;BME280;16708;50.426;7.664;2024-02-14T07:35:56;989.81;;;7.57;100.00
29815;BME280;16708;50.426;7.664;2024-02-14T07:40:48;989.76;;;7.59;100.00
29815;BME280;16708;50.426;7.664;2024-02-14T07:45:39;989.87;;;8.01;100.00
29815;BME280;16708;50.426;7.664;2024-02-14T07:50:33;989.78;;;7.96;100.00
29815;BME280;16708;50.426;7.664;2024-02-14T07:55:27;989.96;;;7.68;100.00
29815;BME280;16708;50.426;7.664;2024-02-14T08:00:21;989.85;;;7.64;100.00
29815;BME280;16708;50.426;7.664;2024-02-14T08:05:15;989.94;;;7.55;100.00
29815;BME280;16708;50.426;7.664;2024-02-14T08:10:09;989.98;;;7.64;100.00
29815;BME280;16708;50.426;7.664;2024-02-14T08:15:03;990.03;;;7.77;100.00
29815;BME280;16708;50.426;7.664;2024-02-14T08:19:55;989.97;;;7.87;100.00
29815;BME280;16708;50.426;7.664;2024-02-14T08:24:49;990.04;;;8.08;100.00
29815;BME280;16708;50.426;7.664;2024-02-14T08:29:43;990.20;;;8.01;100.00
29815;BME280;16708;50.426;7.664;2024-02-14T08:34:37;990.18;;;7.83;100.00
29815;BME280;16708;50.426;7.664;2024-02-14T08:39:31;990.29;;;7.84;100.00
29815;BME280;16708;50.426;7.664;2024-02-14T08:44:25;990.28;;;7.95;100.00
29815;BME280;16708;50.426;7.664;2024-02-14T08:49:20;990.25;;;8.04;100.00
29815;BME280;16708;50.426;7.664;2024-02-14T08:54:14;990.21;;;7.97;100.00
29815;BME280;16708;50.426;7.664;2024-02-14T08:59:08;990.14;;;8.05;100.00
29815;BME280;16708;50.426;7.664;2024-02-14T09:04:02;990.17;;;8.05;100.00
29815;BME280;16708;50.426;7.664;2024-02-14T09:08:56;990.24;;;8.19;100.00
29815;BME280;16708;50.426;7.664;2024-02-14T09:13:50;990.24;;;8.24;100.00
29815;BME280;16708;50.426;7.664;2024-02-14T09:18:44;990.28;;;8.34;100.00
29815;BME280;16708;50.426;7.664;2024-02-14T09:23:38;990.31;;;8.34;100.00
29815;BME280;16708;50.426;7.664;2024-02-14T09:28:32;990.26;;;8.40;100.00
29815;BME280;16708;50.426;7.664;2024-02-14T09:33:27;990.31;;;8.50;100.00
29815;BME280;16708;50.426;7.664;2024-02-14T09:38:21;990.27;;;8.48;100.00
29815;BME280;16708;50.426;7.664;2024-02-14T09:43:15;990.29;;;8.65;100.00
29815;BME280;16708;50.426;7.664;2024-02-14T09:48:09;990.25;;;8.92;100.00
29815;BME280;16708;50.426;7.664;2024-02-14T09:53:04;990.20;;;9.01;100.00
29815;BME280;16708;50.426;7.664;2024-02-14T09:57:57;990.24;;;9.04;100.00
29815;BME280;16708;50.426;7.664;2024-02-14T10:02:51;990.34;;;9.21;100.00
29815;BME280;16708;50.426;7.664;2024-02-14T10:07:45;990.29;;;9.40;100.00
29815;BME280;16708;50.426;7.664;2024-02-14T10:12:39;990.35;;;9.75;100.00
29815;BME280;16708;50.426;7.664;2024-02-14T10:17:33;990.53;;;9.53;100.00
29815;BME280;16708;50.426;7.664;2024-02-14T10:22:27;990.61;;;9.48;100.00
29815;BME280;16708;50.426;7.664;2024-02-14T10:27:21;990.67;;;9.14;100.00
29815;BME280;16708;50.426;7.664;2024-02-14T10:32:15;990.54;;;9.17;100.00
29815;BME280;16708;50.426;7.664;2024-02-14T10:37:07;990.57;;;9.36;100.00
29815;BME280;16708;50.426;7.664;2024-02-14T10:42:02;990.68;;;9.29;100.00
29815;BME280;16708;50.426;7.664;2024-02-14T10:46:56;990.69;;;9.56;100.00
29815;BME280;16708;50.426;7.664;2024-02-14T10:51:50;990.70;;;9.46;100.00
29815;BME280;16708;50.426;7.664;2024-02-14T10:56:44;990.67;;;9.52;100.00
29815;BME280;16708;50.426;7.664;2024-02-14T11:06:32;990.44;;;9.91;100.00
29815;BME280;16708;50.426;7.664;2024-02-14T11:21:14;990.39;;;9.93;100.00
29815;BME280;16708;50.426;7.664;2024-02-14T11:26:05;990.37;;;9.90;100.00
29815;BME280;16708;50.426;7.664;2024-02-14T11:30:59;990.36;;;10.09;100.00
29815;BME280;16708;50.426;7.664;2024-02-14T11:35:54;990.41;;;10.01;100.00
29815;BME280;16708;50.426;7.664;2024-02-14T11:40:47;990.42;;;9.81;100.00
29815;BME280;16708;50.426;7.664;2024-02-14T11:45:38;990.39;;;9.90;100.00
29815;BME280;16708;50.426;7.664;2024-02-14T11:50:32;990.42;;;10.04;100.00
29815;BME280;16708;50.426;7.664;2024-02-14T11:55:26;990.30;;;9.89;100.00
29815;BME280;16708;50.426;7.664;2024-02-14T12:00:19;990.45;;;9.83;100.00
29815;BME280;16708;50.426;7.664;2024-02-14T12:05:13;990.47;;;9.70;100.00
29815;BME280;16708;50.426;7.664;2024-02-14T12:10:07;990.49;;;9.63;100.00
29815;BME280;16708;50.426;7.664;2024-02-14T12:15:01;990.37;;;9.57;100.00
29815;BME280;16708;50.426;7.664;2024-02-14T12:19:55;990.32;;;9.57;100.00
29815;BME280;16708;50.426;7.664;2024-02-14T12:24:48;990.34;;;9.68;100.00
29815;BME280;16708;50.426;7.664;2024-02-14T12:29:42;990.28;;;9.63;100.00
29815;BME280;16708;50.426;7.664;2024-02-14T12:34:36;990.47;;;9.60;100.00
29815;BME280;16708;50.426;7.664;2024-02-14T12:39:30;990.37;;;9.68;100.00
29815;BME280;16708;50.426;7.664;2024-02-14T12:44:24;990.34;;;9.81;100.00
29815;BME280;16708;50.426;7.664;2024-02-14T12:49:21;990.42;;;9.83;100.00
29815;BME280;16708;50.426;7.664;2024-02-14T12:54:12;990.40;;;9.87;100.00
29815;BME280;16708;50.426;7.664;2024-02-14T12:59:07;990.49;;;9.87;100.00
29815;BME280;16708;50.426;7.664;2024-02-14T13:04:01;990.53;;;9.54;100.00
29815;BME280;16708;50.426;7.664;2024-02-14T13:08:56;990.57;;;9.51;100.00
29815;BME280;16708;50.426;7.664;2024-02-14T13:18:43;990.59;;;9.33;100.00
29815;BME280;16708;50.426;7.664;2024-02-14T13:23:38;990.42;;;9.40;100.00
29815;BME280;16708;50.426;7.664;2024-02-14T13:28:32;990.62;;;9.39;100.00
29815;BME280;16708;50.426;7.664;2024-02-14T13:33:25;990.49;;;9.33;100.00
29815;BME280;16708;50.426;7.664;2024-02-14T13:38:20;990.54;;;9.26;100.00
29815;BME280;16708;50.426;7.664;2024-02-14T14:02:46;990.36;;;9.41;100.00
29815;BME280;16708;50.426;7.664;2024-02-14T14:07:40;990.27;;;9.40;100.00
29815;BME280;16708;50.426;7.664;2024-02-14T14:12:34;990.28;;;9.52;100.00
29815;BME280;16708;50.426;7.664;2024-02-14T14:17:29;990.29;;;9.73;100.00
29815;BME280;16708;50.426;7.664;2024-02-14T14:22:24;990.28;;;9.54;100.00
29815;BME280;16708;50.426;7.664;2024-02-14T14:27:17;990.21;;;9.57;100.00
29815;BME280;16708;50.426;7.664;2024-02-14T14:32:10;990.26;;;9.54;100.00
29815;BME280;16708;50.426;7.664;2024-02-14T14:37:05;990.22;;;9.53;100.00
29815;BME280;16708;50.426;7.664;2024-02-14T14:41:59;990.20;;;9.61;100.00
29815;BME280;16708;50.426;7.664;2024-02-14T14:46:53;990.25;;;9.66;100.00
29815;BME280;16708;50.426;7.664;2024-02-14T15:01:29;990.21;;;9.67;100.00
29815;BME280;16708;50.426;7.664;2024-02-14T15:06:23;990.24;;;9.72;100.00
29815;BME280;16708;50.426;7.664;2024-02-14T15:20:59;990.25;;;9.61;100.00
29815;BME280;16708;50.426;7.664;2024-02-14T15:35:36;990.09;;;9.61;100.00
29815;BME280;16708;50.426;7.664;2024-02-14T15:50:09;990.33;;;9.61;100.00
29815;BME280;16708;50.426;7.664;2024-02-14T16:04:47;990.22;;;9.53;100.00
29815;BME280;16708;50.426;7.664;2024-02-14T16:19:21;990.21;;;9.56;100.00
29815;BME280;16708;50.426;7.664;2024-02-14T16:33:58;990.25;;;9.61;100.00
29815;BME280;16708;50.426;7.664;2024-02-14T16:48:36;990.44;;;9.68;100.00
29815;BME280;16708;50.426;7.664;2024-02-14T17:03:13;990.53;;;9.70;100.00
29815;BME280;16708;50.426;7.664;2024-02-14T17:17:50;990.60;;;9.82;100.00
29815;BME280;16708;50.426;7.664;2024-02-14T17:32:19;990.50;;;9.83;100.00
29815;BME280;16708;50.426;7.664;2024-02-14T17:46:55;990.62;;;9.90;100.00
29815;BME280;16708;50.426;7.664;2024-02-14T18:01:33;990.72;;;9.94;100.00
29815;BME280;16708;50.426;7.664;2024-02-14T18:16:11;990.76;;;10.01;100.00
29815;BME280;16708;50.426;7.664;2024-02-14T18:30:49;990.76;;;10.11;100.00
29815;BME280;16708;50.426;7.664;2024-02-14T18:45:22;990.69;;;10.08;100.00
29815;BME280;16708;50.426;7.664;2024-02-14T18:59:59;990.88;;;10.10;100.00
29815;BME280;16708;50.426;7.664;2024-02-14T19:14:37;990.93;;;10.08;100.00
29815;BME280;16708;50.426;7.664;2024-02-14T19:29:13;990.97;;;10.08;100.00
29815;BME280;16708;50.426;7.664;2024-02-14T19:43:51;990.96;;;10.17;100.00
29815;BME280;16708;50.426;7.664;2024-02-14T19:58:28;991.03;;;10.03;100.00
29815;BME280;16708;50.426;7.664;2024-02-14T20:13:06;991.09;;;10.04;100.00
29815;BME280;16708;50.426;7.664;2024-02-14T20:27:44;991.21;;;10.06;100.00
29815;BME280;16708;50.426;7.664;2024-02-14T20:42:23;991.12;;;10.00;100.00
29815;BME280;16708;50.426;7.664;2024-02-14T20:56:58;991.04;;;9.98;100.00
29815;BME280;16708;50.426;7.664;2024-02-14T21:11:37;991.11;;;10.02;100.00
29815;BME280;16708;50.426;7.664;2024-02-14T21:26:11;991.19;;;9.99;100.00
29815;BME280;16708;50.426;7.664;2024-02-14T21:40:50;991.08;;;10.03;100.00
29815;BME280;16708;50.426;7.664;2024-02-14T21:55:25;991.08;;;10.05;100.00
29815;BME280;16708;50.426;7.664;2024-02-14T22:10:02;991.17;;;10.06;100.00
29815;BME280;16708;50.426;7.664;2024-02-14T22:24:39;991.10;;;10.12;100.00
29815;BME280;16708;50.426;7.664;2024-02-14T22:39:19;991.08;;;10.21;100.00
29815;BME280;16708;50.426;7.664;2024-02-14T22:53:53;991.02;;;10.23;100.00
29815;BME280;16708;50.426;7.664;2024-02-14T23:08:31;991.02;;;10.29;100.00
29815;BME280;16708;50.426;7.664;2024-02-14T23:23:08;990.85;;;10.32;100.00
29815;BME280;16708;50.426;7.664;2024-02-14T23:37:45;990.90;;;10.38;100.00
29815;BME280;16708;50.426;7.664;2024-02-14T23:52:23;990.83;;;10.39;100.00
